Time;durP1;ratioP1;P1;durP2;ratioP2;P2;SDS_P1;SDS_P2;PMS_P1;PMS_P2;Temp;Humidity;BMP_temperature;BMP_pressure;BME280_temperature;BME280_humidity;BME280_pressure;Samples;Min_cycle;Max_cycle;Signal;HPM_P1;HPM_P2
2023/12/04 00:01:52;;;;;;;2.10;2.00;;;;;;;-1.42;100.00;100294.38;5022706;28;20036;-66
2023/12/04 00:04:18;;;;;;;2.03;1.92;;;;;;;-1.47;100.00;100283.84;5023695;28;20033;-66
2023/12/04 00:06:43;;;;;;;1.90;1.80;;;;;;;-1.38;100.00;100285.75;5010413;28;20034;-66
2023/12/04 00:09:09;;;;;;;2.00;1.90;;;;;;;-1.37;100.00;100279.72;5025357;28;20037;-66
2023/12/04 00:11:34;;;;;;;2.00;1.90;;;;;;;-1.43;100.00;100271.75;5013132;28;20033;-66
2023/12/04 00:14:00;;;;;;;1.77;1.77;;;;;;;-1.34;100.00;100277.16;5010365;28;20385;-66
2023/12/04 00:16:26;;;;;;;2.10;2.00;;;;;;;-1.27;100.00;100273.81;5021090;28;20036;-66
2023/12/04 00:18:51;;;;;;;2.10;2.00;;;;;;;-1.30;100.00;100263.28;5027619;28;20036;-66
2023/12/04 00:21:16;;;;;;;1.75;1.75;;;;;;;-1.24;100.00;100263.44;5008955;28;20126;-66
2023/12/04 00:23:42;;;;;;;1.80;1.80;;;;;;;-1.27;100.00;100257.28;5002774;28;20527;-65
2023/12/04 00:26:07;;;;;;;2.00;1.90;;;;;;;-1.24;100.00;100260.81;5008326;28;20533;-65
2023/12/04 00:28:36;;;;;;;2.00;1.90;;;;;;;-1.28;100.00;100245.94;5010456;28;20029;-66
2023/12/04 00:31:01;;;;;;;1.70;1.70;;;;;;;-1.23;100.00;100240.81;5027942;28;20616;-65
2023/12/04 00:33:26;;;;;;;1.90;1.80;;;;;;;-1.22;100.00;100235.63;5028172;28;20045;-65
2023/12/04 00:35:52;;;;;;;1.90;1.80;;;;;;;-1.22;100.00;100245.19;5016511;28;20037;-65
2023/12/04 00:38:17;;;;;;;1.75;1.75;;;;;;;-1.26;100.00;100228.59;5025830;28;20064;-65
2023/12/04 00:40:43;;;;;;;2.00;1.90;;;;;;;-1.21;100.00;100237.38;5026684;28;20029;-65
2023/12/04 00:43:08;;;;;;;2.00;1.90;;;;;;;-1.23;100.00;100241.69;5010668;28;20030;-65
2023/12/04 00:45:34;;;;;;;1.98;1.88;;;;;;;-1.23;100.00;100232.97;5016694;28;20025;-65
2023/12/04 00:47:59;;;;;;;2.00;1.90;;;;;;;-1.19;100.00;100225.25;5029079;28;20047;-65
2023/12/04 00:50:24;;;;;;;2.00;1.90;;;;;;;-1.24;100.00;100216.47;5019802;28;20116;-65
2023/12/04 00:52:50;;;;;;;1.90;1.80;;;;;;;-1.29;100.00;100218.09;5009610;28;20022;-65
2023/12/04 00:55:15;;;;;;;2.10;2.00;;;;;;;-1.24;100.00;100207.75;5010066;28;20030;-65
2023/12/04 00:57:41;;;;;;;2.08;1.98;;;;;;;-1.33;100.00;100199.78;4993708;28;20026;-65
2023/12/04 01:00:07;;;;;;;1.80;1.75;;;;;;;-1.27;100.00;100200.75;5009533;28;20473;-65
2023/12/04 01:02:32;;;;;;;2.10;2.00;;;;;;;-1.25;100.00;100193.81;5025031;28;20022;-65
2023/12/04 01:04:57;;;;;;;2.20;2.10;;;;;;;-1.19;100.00;100206.09;5026714;28;20041;-65
2023/12/04 01:07:23;;;;;;;2.00;1.90;;;;;;;-1.18;100.00;100206.13;4991688;28;20504;-65
2023/12/04 01:09:48;;;;;;;2.03;1.92;;;;;;;-1.25;100.00;100204.25;5009335;28;20080;-65
2023/12/04 01:12:14;;;;;;;1.90;1.80;;;;;;;-1.32;100.00;100199.81;5023043;28;20030;-65
2023/12/04 01:14:39;;;;;;;2.00;1.90;;;;;;;-1.37;100.00;100196.22;5028670;28;20091;-65
2023/12/04 01:17:04;;;;;;;2.05;1.95;;;;;;;-1.39;100.00;100193.59;5011133;28;20381;-66
2023/12/04 01:19:31;;;;;;;1.80;1.80;;;;;;;-1.43;100.00;100198.72;5009155;28;20120;-65
2023/12/04 01:21:57;;;;;;;1.90;1.80;;;;;;;-1.46;100.00;100185.63;5014547;28;20109;-66
2023/12/04 01:24:22;;;;;;;2.00;1.90;;;;;;;-1.48;100.00;100189.94;5012354;28;20050;-65
2023/12/04 01:26:48;;;;;;;2.00;1.90;;;;;;;-1.46;100.00;100183.00;5014156;28;20025;-65
2023/12/04 01:29:13;;;;;;;1.70;1.70;;;;;;;-1.51;100.00;100179.44;5027587;28;20147;-65
2023/12/04 01:31:39;;;;;;;2.00;1.90;;;;;;;-1.51;100.00;100169.00;5030758;28;20120;-66
2023/12/04 01:34:04;;;;;;;1.90;1.80;;;;;;;-1.51;100.00;100159.47;5031266;28;20884;-65
2023/12/04 01:36:29;;;;;;;2.10;2.00;;;;;;;-1.54;100.00;100162.03;5023811;28;20037;-65
2023/12/04 01:38:55;;;;;;;1.83;1.80;;;;;;;-1.52;100.00;100167.28;5031919;28;20108;-65
2023/12/04 01:41:21;;;;;;;1.75;1.75;;;;;;;-1.61;100.00;100167.09;5024457;28;20037;-65
2023/12/04 01:43:46;;;;;;;2.08;1.98;;;;;;;-1.64;100.00;100162.72;5019568;28;20437;-65
2023/12/04 01:46:15;;;;;;;2.00;1.90;;;;;;;-1.64;100.00;100169.66;5031940;28;20018;-64
2023/12/04 01:48:41;;;;;;;2.10;2.00;;;;;;;-1.64;100.00;100172.25;5014574;28;20044;-65
2023/12/04 01:51:09;;;;;;;1.98;1.88;;;;;;;-1.68;100.00;100162.63;5020623;28;20033;-66
2023/12/04 01:53:38;;;;;;;2.10;2.00;;;;;;;-1.65;100.00;100155.72;5021103;28;20084;-66
2023/12/04 01:56:04;;;;;;;2.00;1.90;;;;;;;-1.59;100.00;100160.19;5032176;28;20025;-66
2023/12/04 01:58:29;;;;;;;2.08;1.98;;;;;;;-1.60;100.00;100163.66;5032329;28;20021;-66
2023/12/04 02:00:55;;;;;;;1.90;1.80;;;;;;;-1.56;100.00;100155.91;5018318;28;20034;-66
2023/12/04 02:03:20;;;;;;;1.90;1.80;;;;;;;-1.55;100.00;100143.75;5021952;28;20108;-65
2023/12/04 02:05:47;;;;;;;1.85;1.80;;;;;;;-1.44;100.00;100144.81;5012709;28;20049;-66
2023/12/04 02:08:12;;;;;;;2.00;1.90;;;;;;;-1.38;100.00;100155.31;5032367;28;20029;-66
2023/12/04 02:10:38;;;;;;;2.00;1.90;;;;;;;-1.35;100.00;100145.81;5013750;28;20030;-65
2023/12/04 02:13:04;;;;;;;2.10;2.00;;;;;;;-1.26;100.00;100152.94;5014778;28;20105;-65
2023/12/04 02:15:29;;;;;;;2.00;1.90;;;;;;;-1.19;100.00;100146.97;5026382;28;20100;-65
2023/12/04 02:17:55;;;;;;;1.95;1.85;;;;;;;-1.24;100.00;100140.81;5030883;28;20079;-65
2023/12/04 02:20:20;;;;;;;1.90;1.80;;;;;;;-1.14;100.00;100150.53;5028583;28;20022;-65
2023/12/04 02:22:46;;;;;;;2.00;1.90;;;;;;;-1.06;100.00;100143.69;5030092;28;20025;-65
2023/12/04 02:25:12;;;;;;;1.95;1.85;;;;;;;-0.99;100.00;100129.91;5031148;28;20022;-65
2023/12/04 02:27:50;;;;;;;1.75;1.75;;;;;;;-0.90;100.00;100135.25;5031151;28;20027;-64
2023/12/04 02:30:18;;;;;;;1.90;1.80;;;;;;;-0.82;100.00;100123.16;5027147;28;20032;-63
2023/12/04 02:32:46;;;;;;;1.60;1.60;;;;;;;-0.80;100.00;100121.47;5031837;28;20060;-62
2023/12/04 02:35:13;;;;;;;1.90;1.80;;;;;;;-0.76;100.00;100111.94;5027482;28;20127;-63
2023/12/04 02:37:40;;;;;;;1.70;1.70;;;;;;;-0.76;100.00;100110.22;5014247;28;20245;-63
2023/12/04 02:40:06;;;;;;;1.90;1.80;;;;;;;-0.68;100.00;100099.88;5026488;28;20029;-62
2023/12/04 02:42:32;;;;;;;1.65;1.65;;;;;;;-0.64;100.00;100110.38;5022522;28;20030;-63
2023/12/04 02:44:57;;;;;;;2.00;1.90;;;;;;;-0.61;100.00;100101.72;5012897;28;20052;-66
2023/12/04 02:47:23;;;;;;;1.90;1.80;;;;;;;-0.60;100.00;100088.66;5012489;28;20108;-66
2023/12/04 02:49:48;;;;;;;1.80;1.80;;;;;;;-0.58;100.00;100086.97;5031573;28;20029;-66
2023/12/04 02:52:14;;;;;;;1.65;1.65;;;;;;;-0.55;100.00;100073.94;5031566;28;20036;-66
2023/12/04 02:54:39;;;;;;;1.73;1.73;;;;;;;-0.49;100.00;100075.72;5020830;28;20037;-65
2023/12/04 02:57:04;;;;;;;1.70;1.70;;;;;;;-0.51;100.00;100075.69;5010831;28;20034;-66
2023/12/04 02:59:30;;;;;;;1.80;1.75;;;;;;;-0.47;100.00;100079.22;5011772;28;20064;-66
2023/12/04 03:01:55;;;;;;;1.90;1.80;;;;;;;-0.45;100.00;100073.19;5004957;28;20052;-66
2023/12/04 03:04:20;;;;;;;1.85;1.77;;;;;;;-0.42;100.00;100080.16;5030528;28;20018;-66
2023/12/04 03:06:46;;;;;;;1.85;1.80;;;;;;;-0.39;100.00;100080.19;5017903;28;20034;-66
2023/12/04 03:09:11;;;;;;;1.70;1.70;;;;;;;-0.35;100.00;100085.50;5010298;28;20030;-65
2023/12/04 03:11:40;;;;;;;1.80;1.80;;;;;;;-0.34;100.00;100084.63;5017122;28;20073;-66
2023/12/04 03:14:06;;;;;;;1.90;1.80;;;;;;;-0.34;100.00;100082.03;5010456;28;20029;-67
2023/12/04 03:16:31;;;;;;;1.90;1.80;;;;;;;-0.40;100.00;100079.34;5010318;28;20033;-67
2023/12/04 03:18:57;;;;;;;1.90;1.80;;;;;;;-0.40;100.00;100079.34;5022173;28;20029;-67
2023/12/04 03:21:22;;;;;;;1.60;1.60;;;;;;;-0.41;100.00;100077.56;5011776;28;20124;-66
2023/12/04 03:23:48;;;;;;;1.60;1.60;;;;;;;-0.37;100.00;100081.09;5026622;28;20489;-67
2023/12/04 03:26:13;;;;;;;1.70;1.70;;;;;;;-0.38;100.00;100074.13;5011104;28;20030;-67
2023/12/04 03:28:40;;;;;;;1.90;1.80;;;;;;;-0.39;100.00;100078.47;5011224;28;20496;-67
2023/12/04 03:31:05;;;;;;;1.80;1.80;;;;;;;-0.52;100.00;100060.91;5023717;28;20041;-67
2023/12/04 03:33:31;;;;;;;1.70;1.70;;;;;;;-0.42;100.00;100075.84;5030251;28;20429;-66
2023/12/04 03:35:56;;;;;;;1.70;1.70;;;;;;;-0.48;100.00;100067.91;5009070;28;20410;-66
2023/12/04 03:38:21;;;;;;;1.60;1.60;;;;;;;-0.50;100.00;100058.31;5030770;28;20029;-66
2023/12/04 03:40:47;;;;;;;1.70;1.70;;;;;;;-0.47;100.00;100064.44;5012565;28;20159;-67
2023/12/04 03:43:12;;;;;;;1.90;1.80;;;;;;;-0.41;100.00;100074.97;5015568;28;20474;-67
2023/12/04 03:45:38;;;;;;;1.70;1.70;;;;;;;-0.40;100.00;100071.50;5024951;28;20055;-67
2023/12/04 03:48:03;;;;;;;1.85;1.77;;;;;;;-0.40;100.00;100057.56;5024927;28;20033;-67
2023/12/04 03:50:29;;;;;;;1.70;1.70;;;;;;;-0.33;100.00;100070.69;5017533;28;20362;-66
2023/12/04 03:52:54;;;;;;;1.70;1.70;;;;;;;-0.34;100.00;100071.56;5029713;28;20160;-67
2023/12/04 03:55:19;;;;;;;1.90;1.80;;;;;;;-0.29;100.00;100064.66;5030272;28;20808;-67
2023/12/04 03:57:45;;;;;;;1.70;1.70;;;;;;;-0.32;100.00;100054.19;5026471;28;20104;-67
2023/12/04 04:00:11;;;;;;;1.60;1.60;;;;;;;-0.29;100.00;100069.00;5029650;28;20388;-68
2023/12/04 04:02:39;;;;;;;1.90;1.80;;;;;;;-0.24;100.00;100068.19;5029040;28;20345;-67
2023/12/04 04:05:04;;;;;;;1.85;1.80;;;;;;;-0.23;100.00;100059.50;5029521;28;20095;-67
2023/12/04 04:07:31;;;;;;;1.90;1.80;;;;;;;-0.27;100.00;100052.50;5025353;28;20080;-66
2023/12/04 04:09:56;;;;;;;1.70;1.70;;;;;;;-0.25;100.00;100055.13;5029197;28;20108;-68
2023/12/04 04:12:22;;;;;;;1.90;1.80;;;;;;;-0.29;100.00;100043.75;5026257;28;20135;-67
2023/12/04 04:14:47;;;;;;;1.63;1.63;;;;;;;-0.20;100.00;100053.44;5009279;28;20063;-67
2023/12/04 04:17:12;;;;;;;1.88;1.80;;;;;;;-0.18;100.00;100052.56;5009303;28;20022;-67
2023/12/04 04:19:38;;;;;;;1.90;1.80;;;;;;;-0.16;100.00;100053.47;5021307;28;20032;-67
2023/12/04 04:22:04;;;;;;;1.77;1.77;;;;;;;-0.16;100.00;100050.88;5011530;28;20036;-66
2023/12/04 04:24:30;;;;;;;1.70;1.70;;;;;;;-0.22;100.00;100031.63;5020964;28;20111;-67
2023/12/04 04:26:55;;;;;;;1.70;1.70;;;;;;;-0.19;100.00;100039.50;5010075;28;20025;-67
2023/12/04 04:29:20;;;;;;;1.65;1.65;;;;;;;-0.22;100.00;100029.00;5010019;28;20021;-67
2023/12/04 04:31:46;;;;;;;1.60;1.60;;;;;;;-0.27;100.00;100018.53;4999489;28;20507;-67
2023/12/04 04:34:11;;;;;;;1.70;1.70;;;;;;;-0.20;100.00;100032.53;5025998;28;20065;-66
2023/12/04 04:36:37;;;;;;;1.70;1.70;;;;;;;-0.23;100.00;100028.13;5011318;28;20083;-67
2023/12/04 04:39:02;;;;;;;1.60;1.60;;;;;;;-0.23;100.00;100022.06;5025935;28;20548;-66
2023/12/04 04:41:28;;;;;;;1.60;1.60;;;;;;;-0.20;100.00;100022.94;5011281;28;20021;-67
2023/12/04 04:43:53;;;;;;;1.90;1.80;;;;;;;-0.23;100.00;100009.84;5025797;28;20029;-67
2023/12/04 04:46:19;;;;;;;1.70;1.70;;;;;;;-0.16;100.00;100002.94;5004019;28;20493;-66
2023/12/04 04:48:44;;;;;;;1.88;1.80;;;;;;;-0.15;100.00;100004.69;5029631;28;20052;-67
2023/12/04 04:51:10;;;;;;;1.60;1.60;;;;;;;-0.13;100.00;100006.44;5029144;28;20060;-67
2023/12/04 04:53:35;;;;;;;1.70;1.70;;;;;;;-0.16;100.00;100009.03;5024467;28;20037;-67
2023/12/04 04:56:01;;;;;;;1.80;1.80;;;;;;;-0.17;100.00;100002.06;5011290;28;20025;-66
2023/12/04 04:58:26;;;;;;;1.70;1.70;;;;;;;-0.20;100.00;99994.19;5009428;28;20075;-67
2023/12/04 05:00:51;;;;;;;1.60;1.60;;;;;;;-0.41;100.00;99965.22;4993077;28;20045;-67
2023/12/04 05:03:17;;;;;;;1.80;1.80;;;;;;;-0.19;100.00;99993.34;5028516;28;20385;-68
2023/12/04 05:05:42;;;;;;;1.50;1.50;;;;;;;-0.27;100.00;99987.16;5028180;28;20071;-64
2023/12/04 05:08:08;;;;;;;1.75;1.73;;;;;;;-0.28;100.00;99976.69;5024592;28;20034;-63
2023/12/04 05:10:33;;;;;;;1.80;1.80;;;;;;;-0.24;100.00;99987.19;5028633;28;20092;-64
2023/12/04 05:12:58;;;;;;;1.67;1.67;;;;;;;-0.32;100.00;99970.56;5028187;28;20037;-64
2023/12/04 05:15:25;;;;;;;1.60;1.60;;;;;;;-0.25;100.00;99972.34;5012100;28;20030;-63
2023/12/04 05:17:51;;;;;;;1.90;1.80;;;;;;;-0.23;100.00;99981.09;5018514;28;20094;-65
2023/12/04 05:20:16;;;;;;;1.70;1.70;;;;;;;-0.27;100.00;99968.88;5021876;28;20029;-65
2023/12/04 05:22:42;;;;;;;1.90;1.80;;;;;;;-0.25;100.00;99974.97;5009403;28;20022;-64
2023/12/04 05:25:07;;;;;;;1.75;1.75;;;;;;;-0.32;100.00;99960.13;5009372;28;20545;-65
2023/12/04 05:27:33;;;;;;;1.67;1.67;;;;;;;-0.25;100.00;99961.03;5009294;28;20449;-66
2023/12/04 05:29:58;;;;;;;1.65;1.65;;;;;;;-0.30;100.00;99947.06;5017374;28;20037;-65
2023/12/04 05:32:23;;;;;;;1.77;1.77;;;;;;;-0.24;100.00;99950.59;5028700;28;20512;-66
2023/12/04 05:34:49;;;;;;;1.63;1.63;;;;;;;-0.28;100.00;99945.34;5007164;28;20041;-66
2023/12/04 05:37:14;;;;;;;1.60;1.60;;;;;;;-0.23;100.00;99962.78;5008988;28;20453;-66
2023/12/04 05:39:40;;;;;;;2.00;1.90;;;;;;;-0.31;100.00;99964.47;5023206;28;20474;-65
2023/12/04 05:42:05;;;;;;;1.67;1.67;;;;;;;-0.32;100.00;99956.63;5026716;28;20037;-65
2023/12/04 05:44:31;;;;;;;2.00;1.90;;;;;;;-0.31;100.00;99947.91;5027695;28;20152;-64
2023/12/04 05:46:57;;;;;;;1.58;1.58;;;;;;;-0.50;100.00;99919.88;5024147;28;20030;-65
2023/12/04 05:49:22;;;;;;;1.70;1.70;;;;;;;-0.34;100.00;99946.16;5009428;28;20567;-65
2023/12/04 05:51:48;;;;;;;1.70;1.70;;;;;;;-0.32;100.00;99944.44;5026003;28;20413;-64
2023/12/04 05:54:13;;;;;;;1.70;1.70;;;;;;;-0.36;100.00;99933.91;5026309;28;20033;-65
2023/12/04 05:56:39;;;;;;;2.00;1.90;;;;;;;-0.33;100.00;99921.75;5027714;28;20060;-65
2023/12/04 05:59:04;;;;;;;1.50;1.50;;;;;;;-0.26;100.00;99914.84;5022180;28;20034;-65
2023/12/04 06:01:30;;;;;;;1.60;1.60;;;;;;;-0.28;100.00;99904.38;5022808;28;20116;-65
2023/12/04 06:03:55;;;;;;;1.67;1.67;;;;;;;-0.24;100.00;99903.56;5004956;28;20022;-64
2023/12/04 06:06:20;;;;;;;1.70;1.70;;;;;;;-0.14;100.00;99892.31;5030918;28;20025;-65
2023/12/04 06:08:46;;;;;;;1.70;1.70;;;;;;;-0.16;100.00;99882.72;5004077;28;20132;-65
2023/12/04 06:11:12;;;;;;;1.50;1.50;;;;;;;-0.11;100.00;99886.22;5012922;28;20478;-65
2023/12/04 06:13:37;;;;;;;1.60;1.60;;;;;;;-0.03;100.00;99895.00;5026151;28;20041;-67
2023/12/04 06:16:03;;;;;;;1.63;1.63;;;;;;;-0.01;100.00;99880.22;5023628;28;20048;-67
2023/12/04 06:18:28;;;;;;;1.60;1.60;;;;;;;0.00;100.00;99875.00;5022830;28;20489;-67
2023/12/04 06:20:53;;;;;;;1.70;1.70;;;;;;;0.02;100.00;99866.31;5012979;28;20034;-66
2023/12/04 06:23:19;;;;;;;1.60;1.60;;;;;;;0.03;100.00;99859.31;5012371;28;20041;-66
2023/12/04 06:25:45;;;;;;;1.70;1.70;;;;;;;0.00;100.00;99843.63;5012394;28;20058;-66
2023/12/04 06:28:10;;;;;;;1.52;1.52;;;;;;;0.11;100.00;99855.88;5002579;28;20611;-67
2023/12/04 06:30:36;;;;;;;1.80;1.80;;;;;;;0.13;100.00;99865.50;5023905;28;20521;-66
2023/12/04 06:33:02;;;;;;;1.80;1.80;;;;;;;0.13;100.00;99864.63;5020508;28;20038;-66
2023/12/04 06:35:27;;;;;;;1.63;1.63;;;;;;;0.10;100.00;99848.94;5014026;28;20136;-67
2023/12/04 06:37:54;;;;;;;1.60;1.60;;;;;;;0.15;100.00;99847.22;5027848;28;20029;-66
2023/12/04 06:40:20;;;;;;;1.60;1.60;;;;;;;0.19;100.00;99854.19;5012213;28;20453;-67
2023/12/04 06:42:46;;;;;;;1.60;1.60;;;;;;;0.19;100.00;99851.59;5019289;28;20428;-66
2023/12/04 06:45:12;;;;;;;1.60;1.60;;;;;;;0.16;100.00;99848.94;5000706;28;20075;-67
2023/12/04 06:47:40;;;;;;;1.60;1.60;;;;;;;0.14;100.00;99850.69;5011420;28;20104;-66
2023/12/04 06:50:06;;;;;;;1.50;1.50;;;;;;;0.11;100.00;99866.34;5014166;28;20042;-66
2023/12/04 06:52:31;;;;;;;1.60;1.60;;;;;;;0.10;100.00;99859.38;5027591;28;20056;-67
2023/12/04 06:54:57;;;;;;;1.60;1.60;;;;;;;0.12;100.00;99871.59;5029265;28;20033;-66
2023/12/04 06:57:22;;;;;;;1.70;1.70;;;;;;;0.09;100.00;99862.84;5012663;28;20039;-66
2023/12/04 06:59:47;;;;;;;1.90;1.80;;;;;;;0.15;100.00;99868.13;5021126;28;20030;-66
2023/12/04 07:02:13;;;;;;;1.70;1.70;;;;;;;0.19;100.00;99881.22;5005754;28;20548;-66
2023/12/04 07:04:39;;;;;;;1.55;1.55;;;;;;;0.19;100.00;99878.63;5027925;28;20036;-67
2023/12/04 07:07:05;;;;;;;1.60;1.60;;;;;;;0.16;100.00;99875.09;5012669;28;20076;-66
2023/12/04 07:09:34;;;;;;;1.60;1.60;;;;;;;0.17;100.00;99876.84;5011420;28;20025;-67
2023/12/04 07:12:00;;;;;;;1.60;1.60;;;;;;;0.15;100.00;99886.44;5010937;28;20036;-67
2023/12/04 07:14:26;;;;;;;1.70;1.70;;;;;;;0.17;100.00;99888.19;5013510;28;20030;-66
2023/12/04 07:16:52;;;;;;;1.70;1.70;;;;;;;0.14;100.00;99866.38;4992421;28;20030;-66
2023/12/04 07:19:17;;;;;;;1.70;1.70;;;;;;;0.23;100.00;99859.44;5010145;28;20052;-66
2023/12/04 07:21:42;;;;;;;1.60;1.60;;;;;;;0.30;100.00;99866.47;5012023;28;20030;-66
2023/12/04 07:24:08;;;;;;;1.60;1.60;;;;;;;0.35;100.00;99874.34;4994967;28;20036;-65
2023/12/04 07:26:35;;;;;;;1.70;1.70;;;;;;;0.43;100.00;99881.38;5020408;28;20030;-64
2023/12/04 07:29:01;;;;;;;1.80;1.80;;;;;;;0.42;100.00;99869.16;5010681;28;20038;-65
2023/12/04 07:31:27;;;;;;;1.40;1.40;;;;;;;0.52;100.00;99883.16;5016068;28;20460;-65
2023/12/04 07:33:55;;;;;;;1.80;1.80;;;;;;;0.53;100.00;99883.16;5029638;28;20132;-65
2023/12/04 07:36:21;;;;;;;1.90;1.80;;;;;;;0.55;100.00;99875.31;5015607;28;20442;-65
2023/12/04 07:38:47;;;;;;;1.75;1.75;;;;;;;0.54;100.00;99856.16;5009698;28;20036;-65
2023/12/04 07:41:13;;;;;;;1.70;1.70;;;;;;;0.60;100.00;99860.50;5028745;28;20538;-65
2023/12/04 07:43:39;;;;;;;1.60;1.60;;;;;;;0.59;100.00;99850.94;5027047;28;20464;-65
2023/12/04 07:46:05;;;;;;;1.60;1.60;;;;;;;0.61;100.00;99844.81;5021670;28;20049;-65
2023/12/04 07:48:30;;;;;;;1.50;1.50;;;;;;;0.61;100.00;99842.19;5026134;28;20037;-65
2023/12/04 07:50:56;;;;;;;1.50;1.50;;;;;;;0.64;100.00;99849.22;5028603;28;20037;-65
2023/12/04 07:53:22;;;;;;;1.50;1.50;;;;;;;0.64;100.00;99833.50;5026961;28;20108;-65
2023/12/04 07:55:50;;;;;;;1.70;1.70;;;;;;;0.61;100.00;99818.66;5027450;28;20053;-65
2023/12/04 07:58:17;;;;;;;1.60;1.60;;;;;;;0.66;100.00;99816.06;5028281;28;20029;-65
2023/12/04 08:00:43;;;;;;;1.60;1.60;;;;;;;0.74;100.00;99830.06;5021829;28;20026;-65
2023/12/04 08:03:08;;;;;;;1.40;1.40;;;;;;;0.83;100.00;99819.59;5014854;28;20033;-64
2023/12/04 08:05:34;;;;;;;1.45;1.45;;;;;;;0.90;100.00;99824.00;5029508;28;20029;-64
2023/12/04 08:08:00;;;;;;;1.52;1.52;;;;;;;0.86;100.00;99815.25;5029325;28;20548;-65
2023/12/04 08:10:25;;;;;;;1.50;1.50;;;;;;;0.95;100.00;99801.31;5029368;28;20029;-64
2023/12/04 08:12:51;;;;;;;1.48;1.48;;;;;;;1.01;100.00;99793.47;5017237;28;20481;-65
2023/12/04 08:15:16;;;;;;;1.40;1.40;;;;;;;1.02;100.00;99796.06;5010141;28;20088;-64
2023/12/04 08:17:42;;;;;;;1.70;1.70;;;;;;;1.03;100.00;99800.47;5010126;28;20049;-64
2023/12/04 08:20:13;;;;;;;1.50;1.50;;;;;;;0.96;100.00;99803.94;4993293;28;20037;-64
2023/12/04 08:22:39;;;;;;;1.60;1.60;;;;;;;0.98;100.00;99810.06;5029802;28;20474;-64
2023/12/04 08:25:05;;;;;;;1.50;1.50;;;;;;;0.98;100.00;99790.84;5029335;28;20155;-64
2023/12/04 08:27:32;;;;;;;1.40;1.40;;;;;;;1.04;100.00;99806.56;5020475;28;20521;-64
2023/12/04 08:29:58;;;;;;;1.40;1.40;;;;;;;1.12;100.00;99803.09;5011156;28;20081;-64
2023/12/04 08:32:24;;;;;;;1.40;1.40;;;;;;;1.10;100.00;99796.97;5014975;28;20119;-64
2023/12/04 08:34:50;;;;;;;1.42;1.42;;;;;;;1.19;100.00;99803.97;5026101;28;20045;-64
2023/12/04 08:37:15;;;;;;;1.40;1.40;;;;;;;1.14;100.00;99790.00;5011751;28;20097;-64
2023/12/04 08:39:40;;;;;;;1.50;1.50;;;;;;;1.23;100.00;99805.72;5029057;28;20123;-64
2023/12/04 08:42:06;;;;;;;1.50;1.50;;;;;;;1.23;100.00;99805.72;5017135;28;20033;-64
2023/12/04 08:44:31;;;;;;;1.42;1.42;;;;;;;1.24;100.00;99817.94;5008655;28;20021;-65
2023/12/04 08:46:57;;;;;;;1.30;1.30;;;;;;;1.20;100.00;99822.31;5025672;28;20455;-64
2023/12/04 08:49:23;;;;;;;1.40;1.40;;;;;;;1.17;100.00;99826.69;5029350;28;20029;-64
2023/12/04 08:51:52;;;;;;;1.40;1.40;;;;;;;1.20;100.00;99826.69;5013739;28;20033;-64
2023/12/04 08:54:18;;;;;;;1.38;1.38;;;;;;;1.24;100.00;99817.94;5029017;28;20022;-64
2023/12/04 08:56:44;;;;;;;1.50;1.50;;;;;;;1.30;100.00;99823.22;5018589;28;20033;-64
2023/12/04 08:59:09;;;;;;;1.33;1.33;;;;;;;1.42;100.00;99831.06;5009652;28;20456;-64
2023/12/04 09:01:35;;;;;;;1.42;1.42;;;;;;;1.45;100.00;99833.69;5020110;28;20037;-64
2023/12/04 09:04:00;;;;;;;1.60;1.60;;;;;;;1.52;100.00;99839.78;5029240;28;20422;-64
2023/12/04 09:06:25;;;;;;;1.48;1.48;;;;;;;1.58;100.00;99809.25;5027475;28;20039;-64
2023/12/04 09:08:51;;;;;;;1.50;1.50;;;;;;;1.60;100.00;99820.59;5010927;28;20402;-64
2023/12/04 09:11:16;;;;;;;1.38;1.38;;;;;;;1.64;100.00;99824.97;5009390;28;20115;-64
2023/12/04 09:13:42;;;;;;;1.40;1.40;;;;;;;1.58;100.00;99813.59;5011660;28;20563;-64
2023/12/04 09:16:08;;;;;;;1.50;1.50;;;;;;;1.60;100.00;99838.09;5009436;28;20041;-64
2023/12/04 09:18:34;;;;;;;1.50;1.50;;;;;;;1.48;100.00;99859.03;4993019;28;20437;-64
2023/12/04 09:20:59;;;;;;;1.40;1.40;;;;;;;1.41;100.00;99859.88;5009756;28;20033;-64
2023/12/04 09:23:25;;;;;;;1.50;1.50;;;;;;;1.41;100.00;99836.31;5007870;28;20796;-64
2023/12/04 09:25:50;;;;;;;1.50;1.50;;;;;;;1.48;100.00;99831.09;5011217;28;20042;-64
2023/12/04 09:28:16;;;;;;;1.40;1.40;;;;;;;1.57;100.00;99874.75;5007899;28;20040;-64
2023/12/04 09:30:41;;;;;;;1.40;1.40;;;;;;;1.62;100.00;99852.91;5010038;28;20148;-64
2023/12/04 09:33:07;;;;;;;1.40;1.40;;;;;;;1.70;100.00;99845.94;5007950;28;20038;-64
2023/12/04 09:35:32;;;;;;;1.40;1.40;;;;;;;1.77;100.00;99816.22;4993303;28;20029;-64
2023/12/04 09:37:58;;;;;;;1.50;1.50;;;;;;;1.87;100.00;99804.84;5008653;28;20028;-64
2023/12/04 09:40:24;;;;;;;1.40;1.40;;;;;;;1.91;100.00;99798.69;5024474;28;20180;-64
2023/12/04 09:42:50;;;;;;;1.42;1.42;;;;;;;2.06;100.00;99803.94;5031081;28;20116;-64
2023/12/04 09:45:16;;;;;;;1.30;1.30;;;;;;;2.14;100.00;99794.28;5031351;28;20030;-64
2023/12/04 09:47:42;;;;;;;1.20;1.20;;;;;;;2.14;100.00;99791.66;5030051;28;20021;-64
2023/12/04 09:50:08;;;;;;;1.40;1.40;;;;;;;2.16;100.00;99789.91;5014134;28;20485;-64
2023/12/04 09:52:35;;;;;;;1.38;1.38;;;;;;;2.21;100.00;99798.66;5024256;28;20029;-63
2023/12/04 09:55:01;;;;;;;1.40;1.40;;;;;;;2.18;100.00;99780.28;5011452;28;20060;-63
2023/12/04 09:57:27;;;;;;;1.40;1.40;;;;;;;2.25;100.00;99779.41;5032491;28;20073;-63
2023/12/04 09:59:52;;;;;;;1.30;1.30;;;;;;;2.31;100.00;99791.63;5028574;28;20022;-64
2023/12/04 10:02:19;;;;;;;1.30;1.30;;;;;;;2.34;100.00;99795.09;5030086;28;20033;-64
2023/12/04 10:04:45;;;;;;;1.30;1.30;;;;;;;2.32;100.00;99785.50;5018468;28;20050;-64
2023/12/04 10:07:11;;;;;;;1.40;1.40;;;;;;;2.32;99.72;99775.00;5032136;28;20357;-64
2023/12/04 10:09:36;;;;;;;1.40;1.40;;;;;;;2.24;100.00;99772.41;5029046;28;20082;-64
2023/12/04 10:12:02;;;;;;;1.40;1.40;;;;;;;2.26;99.91;99764.50;5032234;28;20039;-64
2023/12/04 10:14:27;;;;;;;1.30;1.30;;;;;;;2.20;99.31;99775.94;5029784;28;20025;-63
2023/12/04 10:16:53;;;;;;;1.50;1.50;;;;;;;2.24;100.00;99777.63;5031028;28;20033;-64
2023/12/04 10:19:26;;;;;;;1.40;1.40;;;;;;;2.20;99.72;99760.19;5032344;28;20071;-64
2023/12/04 10:21:52;;;;;;;1.30;1.30;;;;;;;2.11;99.87;99749.69;5022506;28;20029;-63
2023/12/04 10:24:37;;;;;;;1.38;1.38;;;;;;;2.14;100.00;99762.81;5024636;28;20025;-64
2023/12/04 10:27:09;;;;;;;1.30;1.30;;;;;;;2.13;99.96;99754.94;5012299;28;20136;-64
2023/12/04 10:29:47;;;;;;;1.40;1.40;;;;;;;2.17;100.00;99731.34;5020535;28;20021;-64
2023/12/04 10:32:12;;;;;;;1.20;1.20;;;;;;;2.23;100.00;99733.94;5030087;28;20435;-64
2023/12/04 10:34:42;;;;;;;1.20;1.20;;;;;;;2.20;100.00;99728.69;5024900;28;20049;-64
2023/12/04 10:37:09;;;;;;;1.30;1.30;;;;;;;2.20;100.00;99715.59;5030858;28;20480;-64
2023/12/04 10:39:49;;;;;;;1.40;1.40;;;;;;;2.15;100.00;99713.84;5028538;28;20036;-64
2023/12/04 10:42:29;;;;;;;1.40;1.40;;;;;;;2.15;100.00;99719.97;5013708;28;20088;-64
2023/12/04 10:44:58;;;;;;;1.40;1.40;;;;;;;2.20;100.00;99739.19;5014020;28;20033;-64
2023/12/04 10:47:24;;;;;;;1.25;1.25;;;;;;;2.23;100.00;99736.56;5031422;28;20037;-64
2023/12/04 10:49:52;;;;;;;1.33;1.33;;;;;;;2.34;100.00;99724.25;5026798;28;20049;-64
2023/12/04 10:52:21;;;;;;;1.30;1.30;;;;;;;2.30;100.00;99724.28;5009508;28;20026;-64
2023/12/04 10:54:49;;;;;;;1.25;1.25;;;;;;;2.33;99.86;99704.16;5011553;28;20030;-66
2023/12/04 10:57:31;;;;;;;1.27;1.27;;;;;;;2.37;99.99;99699.75;5011271;28;20033;-66
2023/12/04 11:00:02;;;;;;;1.30;1.30;;;;;;;2.50;100.00;99696.19;5013252;28;20042;-65
2023/12/04 11:02:29;;;;;;;1.20;1.20;;;;;;;2.58;100.00;99683.88;5026093;28;20029;-66
2023/12/04 11:05:13;;;;;;;1.27;1.27;;;;;;;2.61;100.00;99658.50;5027670;28;20053;-66
2023/12/04 11:07:49;;;;;;;1.30;1.30;;;;;;;2.67;99.81;99658.44;5030644;28;20622;-65
2023/12/04 11:10:15;;;;;;;1.25;1.25;;;;;;;2.39;98.20;99662.13;4995968;28;20041;-66
2023/12/04 11:12:45;;;;;;;1.40;1.40;;;;;;;2.29;97.84;99659.56;5011413;28;20034;-66
2023/12/04 11:15:16;;;;;;;1.23;1.23;;;;;;;2.18;97.79;99669.22;5011399;28;20092;-65
2023/12/04 11:17:44;;;;;;;1.30;1.30;;;;;;;2.20;98.14;99660.50;5013231;28;20056;-66
2023/12/04 11:20:18;;;;;;;1.40;1.40;;;;;;;2.24;98.55;99643.84;5010462;28;20040;-66
2023/12/04 11:22:45;;;;;;;;;;;;;;;2.29;98.82;99636.81;5011088;28;20084;-65